createdAt,value
2023-04-02T00:20:12.306Z,99629.38
2023-04-02T02:34:39.521Z,99706.33
2023-04-02T03:04:21.619Z,99728.98
2023-04-02T03:19:15.230Z,99745.38
2023-04-02T03:34:12.005Z,99755.44
2023-04-02T03:49:06.786Z,99767.91
2023-04-02T04:03:58.532Z,99783.31
2023-04-02T04:18:50.154Z,99795.36
2023-04-02T04:33:39.979Z,99811.34
2023-04-02T04:48:37.253Z,99831.98
2023-04-02T05:03:39.860Z,99849.78
2023-04-02T05:18:36.548Z,99875.05
2023-04-02T05:33:27.543Z,99897.29
2023-04-02T05:48:29.732Z,99911.47
2023-04-02T06:03:33.628Z,99929.76
2023-04-02T06:18:28.915Z,99955.98
2023-04-02T06:33:20.042Z,99982.14
2023-04-02T06:48:10.778Z,100003.13
2023-04-02T07:03:01.511Z,100021.80
2023-04-02T07:17:52.859Z,100041.41
2023-04-02T07:32:43.966Z,100056.65
2023-04-02T07:47:35.801Z,100077.92
2023-04-02T08:02:26.930Z,100101.13
2023-04-02T08:17:18.360Z,100120.27
2023-04-02T08:32:09.823Z,100132.92
2023-04-02T08:47:01.570Z,100158.02
2023-04-02T09:02:03.145Z,100181.57
2023-04-02T09:16:58.096Z,100211.19
2023-04-02T09:31:50.751Z,100224.09
2023-04-02T09:46:54.669Z,100231.40
2023-04-02T10:01:54.398Z,100245.51
2023-04-02T10:16:48.567Z,100255.70
2023-04-02T10:47:12.108Z,100279.45
2023-04-02T11:02:06.360Z,100296.01
2023-04-02T11:16:58.712Z,100310.67
2023-04-02T11:31:49.816Z,100330.13
2023-04-02T12:02:05.421Z,100359.81
2023-04-02T12:17:01.327Z,100363.77
2023-04-02T12:31:51.231Z,100383.80
2023-04-02T12:46:41.491Z,100416.94
2023-04-02T13:01:30.209Z,100437.81
2023-04-02T13:16:20.618Z,100454.27
2023-04-02T13:31:10.673Z,100461.50
2023-04-02T13:45:59.397Z,100480.14
2023-04-02T14:00:50.301Z,100500.48
2023-04-02T14:15:56.643Z,100527.94
2023-04-02T14:31:07.705Z,100545.78
2023-04-02T14:46:02.521Z,100562.37
2023-04-02T15:01:07.021Z,100585.82
2023-04-02T15:16:14.869Z,100607.59
2023-04-02T15:46:29.478Z,100641.63
2023-04-02T16:01:24.227Z,100661.13
2023-04-02T16:16:30.447Z,100693.41
2023-04-02T16:31:25.489Z,100715.70
2023-04-02T16:46:39.329Z,100739.50
2023-04-02T17:01:25.186Z,100761.28
2023-04-02T17:16:18.078Z,100780.88
2023-04-02T17:31:21.295Z,100821.19
2023-04-02T17:46:21.261Z,100846.41
2023-04-02T18:01:29.888Z,100881.06
2023-04-02T18:16:39.259Z,100914.19
2023-04-02T18:31:37.471Z,100963.32
2023-04-02T18:46:30.445Z,100998.79
2023-04-02T19:01:30.453Z,101028.60
2023-04-02T19:16:46.654Z,101065.13
2023-04-02T19:31:49.783Z,101098.28
2023-04-02T19:46:44.506Z,101122.42
2023-04-02T20:01:33.542Z,101143.72
2023-04-02T21:01:09.874Z,101248.75
2023-04-02T21:16:03.234Z,101257.20
2023-04-02T21:30:52.776Z,101270.89
2023-04-02T21:45:42.399Z,101266.55
2023-04-02T22:00:33.163Z,101270.52
2023-04-02T22:15:23.417Z,101271.61
2023-04-02T22:30:14.970Z,101282.55
2023-04-02T22:45:04.785Z,101294.98
2023-04-02T22:59:54.991Z,101290.09
2023-04-02T23:29:35.875Z,101292.27
2023-04-02T23:44:26.737Z,101290.48
